Time;durP1;ratioP1;P1;durP2;ratioP2;P2;SDS_P1;SDS_P2;PMS_P1;PMS_P2;Temp;Humidity;BMP_temperature;BMP_pressure;BME280_temperature;BME280_humidity;BME280_pressure;Samples;Min_cycle;Max_cycle;Signal;HPM_P1;HPM_P2
2022/12/07 00:01:45;;;;;;;12.02;9.02;;;4.70;93.70;;;;;;4953563;29;20605;-64
2022/12/07 00:04:14;;;;;;;12.45;8.45;;;4.70;93.60;;;;;;4953719;29;20281;-64
2022/12/07 00:06:43;;;;;;;11.35;9.25;;;4.70;93.60;;;;;;4953278;29;20633;-64
2022/12/07 00:09:13;;;;;;;13.65;8.95;;;4.70;93.60;;;;;;4954172;29;20278;-64
2022/12/07 00:11:40;;;;;;;12.10;9.32;;;4.70;93.70;;;;;;4953233;29;20194;-64
2022/12/07 00:14:11;;;;;;;12.02;9.85;;;4.70;93.50;;;;;;4953861;29;20268;-64
2022/12/07 00:16:44;;;;;;;11.68;9.50;;;4.60;93.50;;;;;;4956134;28;20652;-64
2022/12/07 00:19:12;;;;;;;13.18;9.52;;;4.70;93.50;;;;;;4957695;29;20268;-64
2022/12/07 00:21:41;;;;;;;13.10;8.93;;;4.60;93.40;;;;;;4956639;29;20641;-64
2022/12/07 00:24:08;;;;;;;11.88;8.32;;;4.60;93.50;;;;;;4957586;29;20505;-64
2022/12/07 00:26:42;;;;;;;9.30;7.45;;;4.60;93.60;;;;;;4956714;29;20185;-64
2022/12/07 00:29:24;;;;;;;11.57;7.63;;;4.60;93.60;;;;;;4957806;29;20200;-64
2022/12/07 00:31:53;;;;;;;12.88;9.63;;;4.60;93.50;;;;;;4956799;29;20182;-64
2022/12/07 00:34:21;;;;;;;11.18;8.65;;;4.60;93.40;;;;;;4957068;29;20708;-64
2022/12/07 00:36:49;;;;;;;13.13;8.77;;;4.60;93.30;;;;;;4956632;29;20226;-64
2022/12/07 00:39:21;;;;;;;10.30;7.47;;;4.60;93.40;;;;;;4957524;29;20233;-64
2022/12/07 00:41:50;;;;;;;11.88;8.52;;;4.60;93.40;;;;;;4957031;29;20226;-64
2022/12/07 00:44:17;;;;;;;12.68;9.40;;;4.60;93.40;;;;;;4957159;29;20198;-64
2022/12/07 00:46:47;;;;;;;13.38;8.57;;;4.60;93.30;;;;;;4956505;29;20223;-65
2022/12/07 00:49:16;;;;;;;11.65;9.55;;;4.60;93.40;;;;;;4956711;29;20202;-64
2022/12/07 00:51:44;;;;;;;11.05;8.05;;;4.50;93.60;;;;;;4956683;29;20222;-64
2022/12/07 00:54:15;;;;;;;11.57;8.68;;;4.50;93.70;;;;;;4957025;29;20633;-64
2022/12/07 00:56:42;;;;;;;11.73;8.18;;;4.50;93.80;;;;;;4956606;29;20573;-63
2022/12/07 00:59:14;;;;;;;11.23;8.25;;;4.50;93.90;;;;;;4956386;29;20245;-64
2022/12/07 01:01:45;;;;;;;11.52;8.63;;;4.50;93.90;;;;;;4956211;29;20252;-64
2022/12/07 01:04:18;;;;;;;9.57;7.43;;;4.50;93.80;;;;;;4956417;28;20193;-64
2022/12/07 01:06:47;;;;;;;11.40;8.35;;;4.50;93.90;;;;;;4956097;29;20194;-64
2022/12/07 01:09:16;;;;;;;10.68;8.10;;;4.50;94.00;;;;;;4956266;29;20229;-64
2022/12/07 01:11:44;;;;;;;12.35;9.02;;;4.50;94.00;;;;;;4956072;29;20190;-64
2022/12/07 01:14:11;;;;;;;9.57;7.55;;;4.50;94.00;;;;;;4956575;29;20205;-64
2022/12/07 01:16:40;;;;;;;11.27;7.93;;;4.60;94.00;;;;;;4956024;29;20193;-64
2022/12/07 01:19:09;;;;;;;12.95;8.80;;;4.60;94.10;;;;;;4956726;29;20569;-64
2022/12/07 01:21:52;;;;;;;13.48;9.05;;;4.50;94.10;;;;;;4955779;29;20636;-64
2022/12/07 01:24:24;;;;;;;12.90;9.45;;;4.50;94.10;;;;;;4956957;29;20229;-64
2022/12/07 01:26:55;;;;;;;11.45;8.75;;;4.40;94.10;;;;;;4954685;28;20228;-64
2022/12/07 01:29:28;;;;;;;10.63;7.78;;;4.40;94.30;;;;;;4956359;29;20233;-64
2022/12/07 01:32:00;;;;;;;11.48;8.80;;;4.50;94.30;;;;;;4955960;29;20194;-64
2022/12/07 01:34:32;;;;;;;15.10;8.70;;;4.50;94.30;;;;;;4956327;29;20194;-64
2022/12/07 01:37:00;;;;;;;10.43;7.88;;;4.50;94.20;;;;;;4937248;29;20301;-64
2022/12/07 01:39:30;;;;;;;12.23;9.40;;;4.60;94.20;;;;;;4936865;29;20258;-64
2022/12/07 01:41:57;;;;;;;10.07;8.35;;;4.60;94.20;;;;;;4956054;29;20193;-64
2022/12/07 01:44:25;;;;;;;12.25;9.68;;;4.60;94.10;;;;;;4956300;29;20245;-64
2022/12/07 01:46:54;;;;;;;13.55;8.95;;;4.60;93.90;;;;;;4955059;29;20229;-64
2022/12/07 01:49:32;;;;;;;12.45;9.55;;;4.70;93.90;;;;;;4956346;29;20633;-64
2022/12/07 01:52:08;;;;;;;12.45;8.77;;;4.60;93.90;;;;;;4955176;29;20672;-64
2022/12/07 01:54:38;;;;;;;9.20;7.63;;;4.70;93.90;;;;;;4956114;29;20193;-64
2022/12/07 01:57:12;;;;;;;10.98;7.57;;;4.70;93.80;;;;;;4954664;29;20190;-64
2022/12/07 01:59:40;;;;;;;13.45;10.40;;;4.70;93.80;;;;;;4956145;29;20186;-64
2022/12/07 02:02:16;;;;;;;13.30;9.55;;;4.70;93.90;;;;;;4955237;29;20555;-64
2022/12/07 02:04:44;;;;;;;14.73;8.82;;;4.60;93.80;;;;;;4955387;28;20272;-64
2022/12/07 02:07:13;;;;;;;14.73;11.00;;;4.60;93.90;;;;;;4955018;29;20198;-64
2022/12/07 02:09:46;;;;;;;15.60;10.15;;;4.60;93.90;;;;;;4955448;29;20225;-64
2022/12/07 02:12:14;;;;;;;12.35;8.88;;;4.60;93.80;;;;;;4954553;29;20190;-64
2022/12/07 02:14:46;;;;;;;11.13;8.35;;;4.50;93.80;;;;;;4955635;29;20634;-63
2022/12/07 02:17:26;;;;;;;11.13;8.70;;;4.40;93.90;;;;;;4954944;29;20221;-63
2022/12/07 02:20:20;;;;;;;14.73;10.05;;;4.40;94.10;;;;;;4955440;29;20209;-64
2022/12/07 02:23:26;;;;;;;13.00;10.18;;;4.50;94.30;;;;;;4941605;29;20621;-63
2022/12/07 02:26:12;;;;;;;11.00;8.30;;;4.50;94.20;;;;;;4954609;29;20189;-63
2022/12/07 02:28:54;;;;;;;13.77;8.30;;;4.50;94.10;;;;;;4955174;29;20253;-63
2022/12/07 02:31:24;;;;;;;15.50;9.07;;;4.50;94.00;;;;;;4954058;29;20244;-63
2022/12/07 02:33:58;;;;;;;10.23;8.48;;;4.50;94.10;;;;;;4955375;29;20660;-63
2022/12/07 02:36:35;;;;;;;10.07;7.60;;;4.50;94.10;;;;;;4954680;29;20273;-64
2022/12/07 02:39:10;;;;;;;11.93;9.52;;;4.50;94.10;;;;;;4954242;28;20640;-64
2022/12/07 02:41:44;;;;;;;12.35;9.15;;;4.50;94.00;;;;;;4955387;29;20193;-64
2022/12/07 02:44:17;;;;;;;18.38;9.68;;;4.50;94.10;;;;;;4954060;29;20189;-64
2022/12/07 02:46:51;;;;;;;13.15;8.88;;;4.50;94.10;;;;;;4955327;29;20192;-64
2022/12/07 02:49:20;;;;;;;14.38;8.95;;;4.50;94.10;;;;;;4952776;29;20217;-64
2022/12/07 02:51:48;;;;;;;14.48;10.20;;;4.60;94.00;;;;;;4954361;29;20928;-64
2022/12/07 02:54:20;;;;;;;11.20;8.55;;;4.60;94.10;;;;;;4954277;29;20288;-64
2022/12/07 02:56:50;;;;;;;13.55;10.95;;;4.60;94.10;;;;;;4954428;29;20700;-64
2022/12/07 02:59:34;;;;;;;10.98;9.10;;;4.50;94.10;;;;;;4955076;29;20288;-64
2022/12/07 03:02:16;;;;;;;12.63;10.15;;;4.60;94.20;;;;;;4954146;29;20194;-63
2022/12/07 03:04:51;;;;;;;13.07;8.95;;;4.60;94.20;;;;;;4954754;28;20767;-64
2022/12/07 03:07:29;;;;;;;12.25;9.18;;;4.60;94.30;;;;;;4954133;29;20194;-63
2022/12/07 03:10:03;;;;;;;12.90;9.57;;;4.60;94.40;;;;;;4954871;29;20198;-64
2022/12/07 03:12:36;;;;;;;12.25;9.13;;;4.60;94.40;;;;;;4953614;29;20284;-64
2022/12/07 03:15:09;;;;;;;11.75;9.27;;;4.60;94.50;;;;;;4953445;29;20285;-63
2022/12/07 03:17:40;;;;;;;12.32;9.73;;;4.60;94.40;;;;;;4954521;29;20193;-64
2022/12/07 03:20:14;;;;;;;12.00;8.75;;;4.60;94.40;;;;;;4952832;29;20264;-64
2022/12/07 03:22:48;;;;;;;12.15;9.52;;;4.60;94.40;;;;;;4952815;29;20233;-63
2022/12/07 03:25:18;;;;;;;16.02;10.85;;;4.60;94.40;;;;;;4952798;29;20189;-63
2022/12/07 03:27:51;;;;;;;13.25;10.15;;;4.60;94.30;;;;;;4954175;29;20206;-64
2022/12/07 03:30:22;;;;;;;13.93;10.93;;;4.60;94.30;;;;;;4953725;29;20185;-63
2022/12/07 03:32:54;;;;;;;13.75;11.82;;;4.60;94.30;;;;;;4954583;29;20198;-64
2022/12/07 03:35:26;;;;;;;13.48;10.13;;;4.60;94.30;;;;;;4952721;29;20197;-64
2022/12/07 03:37:59;;;;;;;11.15;9.57;;;4.60;94.30;;;;;;4954087;29;20197;-63
2022/12/07 03:40:31;;;;;;;12.55;9.00;;;4.60;94.30;;;;;;4953498;29;20641;-63
2022/12/07 03:43:02;;;;;;;12.02;10.10;;;4.60;94.30;;;;;;4954247;29;20636;-63
2022/12/07 03:45:39;;;;;;;11.55;9.52;;;4.60;94.20;;;;;;4953446;29;20715;-64
2022/12/07 03:48:21;;;;;;;11.23;9.10;;;4.60;94.30;;;;;;4953608;29;20708;-63
2022/12/07 03:51:01;;;;;;;14.10;9.77;;;4.60;94.40;;;;;;4955058;28;20644;-64
2022/12/07 03:54:03;;;;;;;12.98;9.80;;;4.60;94.50;;;;;;4958143;29;20614;-64
2022/12/07 03:56:32;;;;;;;10.50;8.18;;;4.60;94.50;;;;;;4956541;28;20196;-64
2022/12/07 03:59:00;;;;;;;11.85;9.00;;;4.60;94.40;;;;;;4957132;29;20181;-63
2022/12/07 04:01:29;;;;;;;13.07;9.00;;;4.50;94.50;;;;;;4958003;29;20557;-64
2022/12/07 04:04:00;;;;;;;13.05;10.35;;;4.40;94.70;;;;;;4957008;29;20194;-64
2022/12/07 04:06:32;;;;;;;11.82;9.35;;;4.40;94.80;;;;;;4957510;29;20200;-63
2022/12/07 04:09:01;;;;;;;13.98;10.20;;;4.50;95.00;;;;;;4957109;29;20308;-63
2022/12/07 04:11:30;;;;;;;16.40;9.07;;;4.40;95.00;;;;;;4958068;29;20699;-64
2022/12/07 04:16:43;;;;;;;11.45;9.30;;;4.50;95.30;;;;;;4958173;29;20193;-64
2022/12/07 04:19:25;;;;;;;13.50;8.90;;;4.50;95.40;;;;;;4957188;29;20552;-64
2022/12/07 04:21:52;;;;;;;14.18;10.27;;;4.40;95.40;;;;;;4957845;29;20625;-64
2022/12/07 04:24:24;;;;;;;12.70;9.05;;;4.40;95.70;;;;;;4957532;29;20248;-64
2022/12/07 04:26:53;;;;;;;12.55;9.38;;;4.40;95.80;;;;;;4957566;29;20245;-63
2022/12/07 04:29:20;;;;;;;13.98;9.00;;;4.40;95.90;;;;;;4957508;29;20221;-64
2022/12/07 04:31:50;;;;;;;12.30;10.20;;;4.40;95.80;;;;;;4957491;29;20605;-63
2022/12/07 04:34:18;;;;;;;13.98;10.38;;;4.40;95.80;;;;;;4957569;29;20617;-63
2022/12/07 04:36:46;;;;;;;14.77;11.27;;;4.40;95.80;;;;;;4956620;29;20680;-64
2022/12/07 04:39:20;;;;;;;13.48;10.55;;;4.40;95.90;;;;;;4957701;29;20644;-64
2022/12/07 04:42:00;;;;;;;17.58;10.90;;;4.40;96.00;;;;;;4956376;29;20193;-64
2022/12/07 04:44:32;;;;;;;18.33;11.15;;;4.40;95.60;;;;;;4957138;29;20189;-63
2022/12/07 04:47:00;;;;;;;16.70;11.85;;;4.40;95.50;;;;;;4957058;29;20186;-64
2022/12/07 04:49:28;;;;;;;13.75;9.55;;;4.40;95.70;;;;;;4957212;29;20295;-63
2022/12/07 04:51:55;;;;;;;15.90;10.48;;;4.40;95.90;;;;;;4956761;29;20556;-64
2022/12/07 04:54:22;;;;;;;12.65;10.80;;;4.40;96.00;;;;;;4957473;29;20289;-64
2022/12/07 04:56:50;;;;;;;15.27;11.27;;;4.40;96.00;;;;;;4956315;29;20194;-63
2022/12/07 04:59:17;;;;;;;16.05;11.20;;;4.40;96.00;;;;;;4957047;29;20244;-64
2022/12/07 05:01:45;;;;;;;15.23;10.20;;;4.40;95.90;;;;;;4956313;28;20189;-64
2022/12/07 05:04:15;;;;;;;13.52;10.23;;;4.40;95.90;;;;;;4956963;29;20189;-63
2022/12/07 05:06:43;;;;;;;13.05;10.57;;;4.40;95.90;;;;;;4956714;29;20193;-63
2022/12/07 05:09:10;;;;;;;12.70;11.27;;;4.50;96.00;;;;;;4957170;29;20288;-64
2022/12/07 05:11:40;;;;;;;14.02;11.20;;;4.50;95.90;;;;;;4955224;29;20260;-64
2022/12/07 05:14:14;;;;;;;14.25;10.30;;;4.50;95.90;;;;;;4956092;29;20249;-63
2022/12/07 05:16:42;;;;;;;12.80;10.60;;;4.50;95.90;;;;;;4957272;29;20194;-64
2022/12/07 05:19:10;;;;;;;12.45;9.00;;;4.50;95.90;;;;;;4956224;29;20241;-64
2022/12/07 05:21:39;;;;;;;12.15;10.10;;;4.50;96.30;;;;;;4956823;29;20707;-64
2022/12/07 05:24:08;;;;;;;18.85;11.80;;;4.60;96.00;;;;;;4956188;29;20198;-63
2022/12/07 05:26:35;;;;;;;17.70;13.27;;;4.60;96.10;;;;;;4957190;29;20198;-64
2022/12/07 05:29:02;;;;;;;16.83;12.55;;;4.60;96.10;;;;;;4956635;29;20221;-64
2022/12/07 05:31:31;;;;;;;16.65;12.82;;;4.60;96.10;;;;;;4956170;29;20194;-64
2022/12/07 05:33:59;;;;;;;17.92;12.85;;;4.60;96.10;;;;;;4956787;29;20555;-64
2022/12/07 05:36:30;;;;;;;18.35;12.18;;;4.60;96.10;;;;;;4956031;29;20225;-64
2022/12/07 05:38:59;;;;;;;17.05;11.23;;;4.60;96.10;;;;;;4955849;29;20190;-64
2022/12/07 05:44:11;;;;;;;14.77;12.13;;;4.60;96.10;;;;;;4956050;29;20272;-64
2022/12/07 05:46:40;;;;;;;13.82;10.70;;;4.60;96.20;;;;;;4956255;29;20202;-64
2022/12/07 05:49:08;;;;;;;17.45;10.95;;;4.60;96.20;;;;;;4955359;29;20683;-64
2022/12/07 05:51:35;;;;;;;14.70;11.43;;;4.60;96.60;;;;;;4956237;29;20261;-64
2022/12/07 05:54:03;;;;;;;16.15;12.13;;;4.60;96.20;;;;;;4955369;29;20190;-64
2022/12/07 05:56:30;;;;;;;16.85;11.65;;;4.60;96.50;;;;;;4956316;29;20202;-64
2022/12/07 06:01:42;;;;;;;13.50;9.65;;;4.60;96.20;;;;;;4956163;29;20306;-64
2022/12/07 06:04:09;;;;;;;13.40;9.95;;;4.60;96.20;;;;;;4955279;29;20241;-64
2022/12/07 06:06:36;;;;;;;12.65;9.32;;;4.60;96.30;;;;;;4956140;29;20186;-64
2022/12/07 06:09:05;;;;;;;18.90;11.27;;;4.60;96.20;;;;;;4954712;29;20622;-64
2022/12/07 06:14:17;;;;;;;15.05;9.40;;;4.60;96.20;;;;;;4953874;28;20196;-64
2022/12/07 06:16:44;;;;;;;13.65;8.63;;;4.60;96.10;;;;;;4955697;29;20249;-64
2022/12/07 06:19:12;;;;;;;10.80;8.07;;;4.60;96.30;;;;;;4955233;29;20579;-66
2022/12/07 06:21:39;;;;;;;13.85;9.15;;;4.50;96.20;;;;;;4956085;29;20193;-65
2022/12/07 06:24:08;;;;;;;12.70;8.30;;;4.50;96.20;;;;;;4954333;29;20186;-65
2022/12/07 06:26:35;;;;;;;14.75;9.57;;;4.50;96.10;;;;;;4956108;29;20253;-65
2022/12/07 06:29:02;;;;;;;12.57;9.48;;;4.60;96.10;;;;;;4953419;29;20696;-65
2022/12/07 06:31:29;;;;;;;13.00;9.93;;;4.50;96.00;;;;;;4955967;29;20586;-65
2022/12/07 06:33:59;;;;;;;14.73;10.02;;;4.50;95.90;;;;;;4954910;29;20222;-65
2022/12/07 06:36:26;;;;;;;13.57;10.02;;;4.60;96.00;;;;;;4955845;29;20538;-65
2022/12/07 06:38:53;;;;;;;14.77;9.02;;;4.50;95.90;;;;;;4954742;29;20186;-65
2022/12/07 06:41:21;;;;;;;13.18;8.85;;;4.50;95.80;;;;;;4955527;29;20273;-65
2022/12/07 06:43:49;;;;;;;15.07;9.15;;;4.50;95.70;;;;;;4954285;29;20257;-65
2022/12/07 06:46:17;;;;;;;14.07;10.00;;;4.50;95.80;;;;;;4950967;28;20194;-65
2022/12/07 06:48:44;;;;;;;14.20;10.20;;;4.50;95.90;;;;;;4951481;29;20260;-64
2022/12/07 06:51:12;;;;;;;15.15;10.38;;;4.50;96.00;;;;;;4952927;29;20225;-64
2022/12/07 06:53:39;;;;;;;18.50;8.05;;;4.40;95.90;;;;;;4953559;29;20197;-64
2022/12/07 06:56:06;;;;;;;13.88;10.13;;;4.40;95.90;;;;;;4952673;29;20650;-64
2022/12/07 06:58:35;;;;;;;12.48;9.30;;;4.40;95.90;;;;;;4953604;29;20194;-64
2022/12/07 07:01:06;;;;;;;11.75;8.63;;;4.40;95.90;;;;;;4948009;29;20665;-64
2022/12/07 07:03:33;;;;;;;14.27;9.38;;;4.40;95.90;;;;;;4947882;29;20202;-64
2022/12/07 07:06:00;;;;;;;14.32;10.38;;;4.40;95.80;;;;;;4946341;29;20230;-65
2022/12/07 07:08:27;;;;;;;11.82;9.20;;;4.40;95.60;;;;;;4951403;29;20920;-64
2022/12/07 07:10:54;;;;;;;11.50;9.05;;;4.40;95.60;;;;;;4952282;29;20229;-64
2022/12/07 07:13:21;;;;;;;13.63;9.18;;;4.40;95.60;;;;;;4953167;29;20228;-64
2022/12/07 07:15:49;;;;;;;15.02;9.30;;;4.40;95.70;;;;;;4952617;29;20190;-64
2022/12/07 07:18:16;;;;;;;12.50;9.65;;;4.30;95.50;;;;;;4953131;29;20245;-64
2022/12/07 07:20:43;;;;;;;12.65;10.15;;;4.30;95.70;;;;;;4952135;29;20193;-64
2022/12/07 07:23:10;;;;;;;13.60;9.40;;;4.30;95.60;;;;;;4953096;29;20322;-64
2022/12/07 07:25:37;;;;;;;15.38;10.23;;;4.30;95.60;;;;;;4951833;28;20276;-64
2022/12/07 07:28:05;;;;;;;12.05;9.02;;;4.30;95.60;;;;;;4953151;29;20194;-64
2022/12/07 07:30:32;;;;;;;13.48;10.70;;;4.20;95.50;;;;;;4952078;29;20256;-65
2022/12/07 07:33:02;;;;;;;14.10;10.25;;;4.20;95.60;;;;;;4953096;29;20253;-64
2022/12/07 07:35:33;;;;;;;13.48;9.27;;;4.20;96.00;;;;;;4952460;29;20272;-64
2022/12/07 07:38:00;;;;;;;14.70;10.30;;;4.20;95.70;;;;;;4952329;29;20186;-65
2022/12/07 07:40:29;;;;;;;14.98;10.23;;;4.20;95.50;;;;;;4953036;29;20248;-64
2022/12/07 07:42:58;;;;;;;17.17;12.27;;;4.20;95.30;;;;;;4953017;29;20244;-65
2022/12/07 07:45:30;;;;;;;17.77;11.55;;;4.30;95.50;;;;;;4951915;29;20216;-64
2022/12/07 07:47:57;;;;;;;18.85;13.05;;;4.30;95.00;;;;;;4953107;29;20229;-64
2022/12/07 07:50:25;;;;;;;16.00;12.15;;;4.30;95.30;;;;;;4952023;29;20230;-64
2022/12/07 07:52:53;;;;;;;32.67;18.40;;;4.30;95.50;;;;;;4952865;29;20272;-64
2022/12/07 07:55:25;;;;;;;29.23;17.10;;;4.30;95.60;;;;;;4951620;29;20644;-64
2022/12/07 07:57:58;;;;;;;20.58;12.70;;;4.20;95.80;;;;;;4949518;28;20225;-65
2022/12/07 08:00:25;;;;;;;23.17;15.25;;;4.20;95.80;;;;;;4951074;29;20186;-64
2022/12/07 08:02:52;;;;;;;19.45;14.98;;;4.30;95.70;;;;;;4952379;29;20198;-64
2022/12/07 08:05:19;;;;;;;21.35;15.82;;;4.20;95.50;;;;;;4952003;29;20268;-64
2022/12/07 08:07:48;;;;;;;23.48;15.68;;;4.20;95.80;;;;;;4952102;29;20221;-64
2022/12/07 08:10:18;;;;;;;21.23;14.25;;;4.20;95.70;;;;;;4950715;29;20751;-65
2022/12/07 08:15:29;;;;;;;18.15;15.05;;;4.30;96.10;;;;;;4937933;29;20558;-64
2022/12/07 08:17:56;;;;;;;19.80;15.05;;;4.30;96.10;;;;;;4948700;29;20198;-64
2022/12/07 08:20:23;;;;;;;20.60;15.75;;;4.30;95.90;;;;;;4948926;29;20186;-64
2022/12/07 08:22:52;;;;;;;15.85;10.88;;;4.20;95.80;;;;;;4950117;29;20265;-65
2022/12/07 08:25:24;;;;;;;19.95;14.07;;;4.20;95.80;;;;;;4948908;29;20261;-64
2022/12/07 08:27:52;;;;;;;15.80;12.80;;;4.10;95.80;;;;;;4952025;29;20190;-65
2022/12/07 08:30:20;;;;;;;18.95;13.80;;;4.10;96.00;;;;;;4951990;29;20248;-64
2022/12/07 08:32:48;;;;;;;30.52;16.83;;;4.10;96.00;;;;;;4952173;29;20540;-64
2022/12/07 08:35:16;;;;;;;21.98;14.15;;;4.20;95.90;;;;;;4946117;29;20225;-65
2022/12/07 08:37:43;;;;;;;19.33;14.27;;;4.20;95.90;;;;;;4952147;29;20219;-64
2022/12/07 08:40:15;;;;;;;19.02;14.15;;;4.20;95.90;;;;;;4956101;29;20581;-64
2022/12/07 08:42:44;;;;;;;18.60;14.23;;;4.20;95.70;;;;;;4955284;29;20193;-64
2022/12/07 08:45:13;;;;;;;15.88;12.13;;;4.20;95.50;;;;;;4956298;29;20229;-64
2022/12/07 08:47:45;;;;;;;18.23;12.73;;;4.20;95.30;;;;;;4955944;29;20751;-64
2022/12/07 08:50:13;;;;;;;22.42;13.63;;;4.10;95.50;;;;;;4955032;29;20218;-64
2022/12/07 08:52:42;;;;;;;19.20;12.23;;;4.00;96.00;;;;;;4956003;29;20245;-64
2022/12/07 08:55:13;;;;;;;19.05;14.73;;;4.00;96.10;;;;;;4954134;29;20189;-64
2022/12/07 08:57:40;;;;;;;19.20;15.30;;;4.00;96.20;;;;;;4955676;29;20288;-64
2022/12/07 09:00:08;;;;;;;16.98;12.93;;;4.00;96.60;;;;;;4954705;29;20650;-64
2022/12/07 09:02:36;;;;;;;14.63;11.55;;;4.00;96.50;;;;;;4955712;29;20300;-64
2022/12/07 09:05:03;;;;;;;26.27;16.67;;;4.00;96.40;;;;;;4954868;29;20261;-64
2022/12/07 09:07:34;;;;;;;19.05;14.25;;;3.90;96.40;;;;;;4955686;29;20724;-64
2022/12/07 09:10:01;;;;;;;19.27;15.95;;;3.90;97.00;;;;;;4955303;29;20613;-65
2022/12/07 09:12:30;;;;;;;19.80;13.10;;;4.00;96.70;;;;;;4955495;29;20637;-64
2022/12/07 09:14:57;;;;;;;17.42;12.75;;;4.10;97.00;;;;;;4952083;29;20244;-64
2022/12/07 09:17:24;;;;;;;14.25;11.45;;;4.20;97.00;;;;;;4954348;29;20194;-64
2022/12/07 09:19:51;;;;;;;18.58;11.98;;;4.20;96.40;;;;;;4952688;29;20714;-65
2022/12/07 09:22:18;;;;;;;20.80;13.02;;;4.20;96.40;;;;;;4954459;29;20198;-64
2022/12/07 09:24:46;;;;;;;18.83;14.10;;;4.20;96.20;;;;;;4955274;29;20201;-64
2022/12/07 09:27:14;;;;;;;18.35;12.18;;;4.20;96.70;;;;;;4954383;29;20202;-64
2022/12/07 09:29:42;;;;;;;17.02;11.95;;;4.20;96.80;;;;;;4951020;29;20680;-64
2022/12/07 09:32:10;;;;;;;16.48;12.20;;;4.30;96.70;;;;;;4955096;29;20197;-64
2022/12/07 09:34:37;;;;;;;19.75;11.95;;;4.30;97.00;;;;;;4954069;29;20198;-64
2022/12/07 09:37:04;;;;;;;17.20;11.10;;;4.30;97.10;;;;;;4954868;29;20201;-64
2022/12/07 09:39:31;;;;;;;15.93;12.45;;;4.40;96.80;;;;;;4954501;29;20194;-64
2022/12/07 09:42:00;;;;;;;18.15;11.25;;;4.40;96.70;;;;;;4954223;29;20197;-64
2022/12/07 09:44:28;;;;;;;17.55;12.95;;;4.40;96.90;;;;;;4950760;29;20711;-65
2022/12/07 09:46:59;;;;;;;19.80;11.85;;;4.30;96.40;;;;;;4954593;29;20202;-65
2022/12/07 09:49:31;;;;;;;20.05;11.15;;;4.30;96.20;;;;;;4954217;29;20205;-64
2022/12/07 09:52:18;;;;;;;16.20;12.82;;;4.30;96.30;;;;;;4954238;29;20189;-64
2022/12/07 09:54:49;;;;;;;18.77;12.18;;;4.30;96.60;;;;;;4954407;29;20221;-64
2022/12/07 09:57:16;;;;;;;17.08;11.07;;;4.30;97.10;;;;;;4952560;29;20268;-65
2022/12/07 09:59:43;;;;;;;15.20;11.80;;;4.40;97.10;;;;;;4954594;29;20256;-64
2022/12/07 10:02:33;;;;;;;15.10;10.40;;;4.40;96.70;;;;;;4954433;29;20194;-64
2022/12/07 10:05:12;;;;;;;13.55;9.57;;;4.40;97.00;;;;;;4951762;29;20282;-65
2022/12/07 10:07:44;;;;;;;14.50;10.60;;;4.50;97.00;;;;;;4951476;29;20201;-64
2022/12/07 10:10:25;;;;;;;14.15;10.77;;;4.50;96.80;;;;;;4954008;29;20240;-64
2022/12/07 10:12:59;;;;;;;16.52;10.63;;;4.50;96.70;;;;;;4953941;29;20566;-64
2022/12/07 10:15:43;;;;;;;15.52;11.10;;;4.60;96.90;;;;;;4953854;29;20654;-64
2022/12/07 10:18:30;;;;;;;14.52;10.07;;;4.50;96.10;;;;;;4952733;29;20248;-64
2022/12/07 10:21:13;;;;;;;15.00;9.95;;;4.40;96.20;;;;;;4954217;29;20194;-64
2022/12/07 10:23:42;;;;;;;14.55;9.82;;;4.40;96.30;;;;;;4951730;29;20182;-64
2022/12/07 10:26:33;;;;;;;16.30;11.63;;;4.10;96.50;;;;;;4954050;29;20249;-64
2022/12/07 10:29:03;;;;;;;15.52;10.35;;;4.20;97.00;;;;;;4951260;29;20355;-64
2022/12/07 10:31:31;;;;;;;14.93;10.95;;;4.30;96.90;;;;;;4952804;29;20217;-64
2022/12/07 10:34:01;;;;;;;13.57;9.70;;;4.40;97.00;;;;;;4952962;29;20237;-64
2022/12/07 10:36:36;;;;;;;14.90;10.20;;;4.50;97.00;;;;;;4954028;29;20198;-64
2022/12/07 10:39:12;;;;;;;13.65;10.27;;;4.50;96.10;;;;;;4951633;29;20660;-64
2022/12/07 10:41:54;;;;;;;20.50;14.00;;;4.40;96.40;;;;;;4953978;29;20197;-65
2022/12/07 10:44:23;;;;;;;20.02;14.10;;;4.40;97.00;;;;;;4953051;29;20288;-64
2022/12/07 10:47:15;;;;;;;18.75;13.80;;;4.40;96.80;;;;;;4952097;29;20194;-64
2022/12/07 10:50:27;;;;;;;16.35;11.60;;;4.40;97.10;;;;;;4951246;29;20221;-64
2022/12/07 10:53:18;;;;;;;14.45;10.75;;;4.40;97.20;;;;;;4952547;29;20194;-64
2022/12/07 10:56:12;;;;;;;14.50;10.27;;;4.30;97.00;;;;;;4953071;29;20193;-64
2022/12/07 10:58:53;;;;;;;14.57;9.73;;;4.40;97.30;;;;;;4952522;28;20190;-64
2022/12/07 11:01:28;;;;;;;18.65;10.85;;;4.40;97.00;;;;;;4952519;29;20245;-64
2022/12/07 11:04:30;;;;;;;14.80;9.18;;;4.30;96.80;;;;;;4951142;29;20193;-64
2022/12/07 11:07:07;;;;;;;15.90;10.82;;;4.30;97.00;;;;;;4928193;29;20197;-64
2022/12/07 11:10:03;;;;;;;15.02;10.90;;;4.20;97.20;;;;;;4933253;29;20205;-64
2022/12/07 11:12:42;;;;;;;16.63;10.85;;;4.10;97.70;;;;;;4933019;29;20589;-64
2022/12/07 11:15:18;;;;;;;14.93;10.52;;;4.20;97.80;;;;;;4932276;29;20209;-64
2022/12/07 11:17:52;;;;;;;20.60;14.30;;;4.20;97.60;;;;;;4930325;29;20194;-64
2022/12/07 11:20:33;;;;;;;17.45;12.55;;;4.30;97.70;;;;;;4932171;29;20269;-64
2022/12/07 11:23:11;;;;;;;17.58;13.38;;;4.30;97.50;;;;;;4929043;29;20182;-64
2022/12/07 11:25:48;;;;;;;21.17;14.07;;;4.20;97.00;;;;;;4933250;29;20190;-64
2022/12/07 11:28:25;;;;;;;26.08;16.55;;;4.20;97.40;;;;;;4932236;29;20194;-64
2022/12/07 11:31:03;;;;;;;20.45;14.20;;;4.30;97.30;;;;;;4930790;29;20222;-64
2022/12/07 11:33:40;;;;;;;16.83;12.23;;;4.40;97.00;;;;;;4931193;29;20284;-64
2022/12/07 11:36:18;;;;;;;15.93;12.02;;;4.60;96.80;;;;;;4933141;29;20245;-64
2022/12/07 11:38:51;;;;;;;18.17;11.63;;;4.50;96.60;;;;;;4932742;29;20744;-64
2022/12/07 11:41:23;;;;;;;15.55;10.85;;;4.60;96.50;;;;;;4933293;29;20194;-64
2022/12/07 11:44:02;;;;;;;17.02;11.30;;;4.60;96.30;;;;;;4933698;29;20285;-64
2022/12/07 11:46:44;;;;;;;26.50;19.35;;;4.70;96.40;;;;;;4933323;29;20186;-64
2022/12/07 11:49:20;;;;;;;21.40;14.88;;;4.80;96.00;;;;;;4934021;29;20206;-64
2022/12/07 11:51:48;;;;;;;18.13;12.68;;;4.80;95.60;;;;;;4933096;29;20217;-64
2022/12/07 11:54:20;;;;;;;12.63;9.63;;;4.90;95.30;;;;;;4934049;29;20264;-64
2022/12/07 11:56:52;;;;;;;18.83;11.52;;;4.80;94.60;;;;;;4933316;29;20242;-64
2022/12/07 11:59:24;;;;;;;19.02;13.85;;;4.70;94.60;;;;;;4927715;29;20281;-66
2022/12/07 12:01:57;;;;;;;18.10;10.88;;;4.80;95.00;;;;;;4930541;29;20206;-64
2022/12/07 12:04:48;;;;;;;15.57;11.40;;;4.80;95.40;;;;;;4932669;28;20387;-64
2022/12/07 12:07:18;;;;;;;17.60;11.93;;;4.80;94.50;;;;;;4929464;29;20206;-65
2022/12/07 12:09:53;;;;;;;23.13;15.60;;;4.70;94.60;;;;;;4933030;29;20347;-64
2022/12/07 12:12:46;;;;;;;19.25;11.38;;;4.70;94.80;;;;;;4935035;29;20649;-64
2022/12/07 12:15:40;;;;;;;17.83;13.45;;;4.70;94.40;;;;;;4936284;29;20298;-64
2022/12/07 12:18:26;;;;;;;15.95;10.48;;;4.70;94.80;;;;;;4936435;29;20646;-64
2022/12/07 12:20:57;;;;;;;12.85;9.90;;;4.80;94.50;;;;;;4934573;29;20669;-64
2022/12/07 12:23:29;;;;;;;14.80;10.23;;;4.90;94.30;;;;;;4935372;29;20202;-64
2022/12/07 12:25:59;;;;;;;13.23;9.63;;;5.00;94.50;;;;;;4936169;29;20199;-65
2022/12/07 12:28:31;;;;;;;16.85;12.50;;;5.10;94.10;;;;;;4936500;29;20242;-64
2022/12/07 12:31:14;;;;;;;16.83;11.18;;;5.10;94.00;;;;;;4936242;29;20281;-65
2022/12/07 12:33:46;;;;;;;14.38;10.07;;;5.20;93.60;;;;;;4936872;29;20190;-65
2022/12/07 12:36:24;;;;;;;13.55;10.02;;;5.30;93.60;;;;;;4936532;29;20195;-65
2022/12/07 12:39:10;;;;;;;13.23;9.48;;;5.30;93.00;;;;;;4935601;29;20289;-65
2022/12/07 12:42:08;;;;;;;14.80;9.60;;;5.30;92.70;;;;;;4936296;29;20559;-65
2022/12/07 12:45:18;;;;;;;12.50;8.63;;;5.30;92.00;;;;;;4936132;29;20198;-65
2022/12/07 12:47:58;;;;;;;13.80;10.02;;;5.30;92.00;;;;;;4936363;29;20198;-65
2022/12/07 12:50:28;;;;;;;12.18;9.70;;;5.60;92.90;;;;;;4936229;29;20222;-65
2022/12/07 12:53:20;;;;;;;13.75;10.75;;;5.80;92.80;;;;;;4932301;29;20538;-65
2022/12/07 12:56:25;;;;;;;13.00;9.70;;;6.00;92.50;;;;;;4932673;29;20190;-65
2022/12/07 12:59:27;;;;;;;10.95;7.57;;;6.20;92.20;;;;;;4931530;29;20201;-65
2022/12/07 13:01:57;;;;;;;11.90;8.38;;;6.40;90.50;;;;;;4934369;29;20195;-65
2022/12/07 13:04:48;;;;;;;12.88;9.88;;;6.50;88.70;;;;;;4938745;29;20226;-66
2022/12/07 13:07:53;;;;;;;13.15;8.23;;;6.40;88.30;;;;;;4953607;29;20312;-65
2022/12/07 13:10:46;;;;;;;13.80;9.35;;;6.40;87.70;;;;;;4955271;29;20201;-65
2022/12/07 13:13:33;;;;;;;11.50;8.55;;;6.40;86.90;;;;;;4941298;29;20197;-65
2022/12/07 13:16:40;;;;;;;13.68;9.55;;;6.50;86.70;;;;;;4950051;29;20201;-65
2022/12/07 13:20:01;;;;;;;12.00;8.85;;;6.60;85.90;;;;;;4954172;29;20910;-65
2022/12/07 13:22:51;;;;;;;10.98;8.52;;;6.50;85.30;;;;;;4955136;28;20198;-65
2022/12/07 13:25:45;;;;;;;10.82;8.60;;;6.50;85.20;;;;;;4944122;29;20658;-65